LNI755 WAHI-WARR
Flight info
| Callsign | LNI755 |
|---|---|
| Flight time | 0h 43m |
| Altitude | 25000 |
| Route | SO W17N ANY T3 BA |
| Aircraft | B738/M-SDE2E3FGHIRWXY/LB1 |
Departure
| Time | 2026-04-24 04:18 |
|---|---|
| Airport | Yogyakarta International Airport (WAHI) |
Arrival
| Time | 2026-04-24 05:01 |
|---|---|
| Airport | Juanda International Airport (WARR) |
| Time | Latitude | Longitude | Altitude | Speed | Heading |
|---|---|---|---|---|---|
| 2026-04-24 03:46 | -7.90139 | 110.05945 | 36 ft | 0 kts | 21° |
| 2026-04-24 04:08 | -7.90142 | 110.05945 | 38 ft | 3 kts | 21° |
| 2026-04-24 04:09 | -7.90166 | 110.05935 | 36 ft | 4 kts | 26° |
| 2026-04-24 04:09 | -7.90190 | 110.05922 | 38 ft | 4 kts | 32° |
| 2026-04-24 04:09 | -7.90211 | 110.05906 | 36 ft | 4 kts | 48° |
| 2026-04-24 04:09 | -7.90223 | 110.05885 | 38 ft | 4 kts | 98° |
| 2026-04-24 04:10 | -7.90221 | 110.05875 | 38 ft | 1 kts | 110° |
| 2026-04-24 04:13 | -7.90222 | 110.05878 | 38 ft | 2 kts | 110° |
| 2026-04-24 04:13 | -7.90240 | 110.05926 | 38 ft | 12 kts | 110° |
| 2026-04-24 04:13 | -7.90277 | 110.06027 | 38 ft | 17 kts | 110° |
| 2026-04-24 04:14 | -7.90318 | 110.06137 | 37 ft | 16 kts | 111° |
| 2026-04-24 04:14 | -7.90361 | 110.06249 | 39 ft | 17 kts | 110° |
| 2026-04-24 04:14 | -7.90404 | 110.06364 | 39 ft | 19 kts | 111° |
| 2026-04-24 04:14 | -7.90452 | 110.06487 | 39 ft | 18 kts | 123° |
| 2026-04-24 04:15 | -7.90564 | 110.06483 | 38 ft | 17 kts | 200° |
| 2026-04-24 04:15 | -7.90648 | 110.06533 | 39 ft | 17 kts | 107° |
| 2026-04-24 04:15 | -7.90688 | 110.06649 | 39 ft | 17 kts | 110° |
| 2026-04-24 04:15 | -7.90730 | 110.06763 | 41 ft | 19 kts | 110° |
| 2026-04-24 04:16 | -7.90777 | 110.06892 | 41 ft | 20 kts | 110° |
| 2026-04-24 04:16 | -7.90824 | 110.07021 | 42 ft | 21 kts | 110° |
| 2026-04-24 04:16 | -7.90878 | 110.07169 | 40 ft | 19 kts | 111° |
| 2026-04-24 04:16 | -7.90966 | 110.07193 | 41 ft | 18 kts | 243° |
| 2026-04-24 04:17 | -7.91009 | 110.07078 | 44 ft | 17 kts | 262° |
| 2026-04-24 04:17 | -7.90970 | 110.06922 | 42 ft | 36 kts | 290° |
| 2026-04-24 04:17 | -7.90787 | 110.06423 | 40 ft | 114 kts | 290° |
| 2026-04-24 04:17 | -7.90433 | 110.05461 | 109 ft | 172 kts | 290° |
| 2026-04-24 04:18 | -7.90012 | 110.04351 | 1015 ft | 166 kts | 288° |
| 2026-04-24 04:18 | -7.89942 | 110.03164 | 1730 ft | 183 kts | 255° |
| 2026-04-24 04:18 | -7.90479 | 110.01878 | 2119 ft | 212 kts | 245° |
| 2026-04-24 04:18 | -7.91164 | 110.00435 | 2315 ft | 241 kts | 245° |
| 2026-04-24 04:19 | -7.91898 | 109.98880 | 2828 ft | 250 kts | 246° |
| 2026-04-24 04:19 | -7.92652 | 109.97261 | 3308 ft | 265 kts | 246° |
| 2026-04-24 04:19 | -7.93430 | 109.95565 | 4138 ft | 263 kts | 247° |
| 2026-04-24 04:19 | -7.94191 | 109.93886 | 4753 ft | 266 kts | 247° |
| 2026-04-24 04:20 | -7.94955 | 109.92195 | 5323 ft | 265 kts | 247° |
| 2026-04-24 04:20 | -7.95717 | 109.90498 | 6194 ft | 266 kts | 247° |
| 2026-04-24 04:20 | -7.96484 | 109.88786 | 7019 ft | 269 kts | 247° |
| 2026-04-24 04:20 | -7.97257 | 109.87059 | 7811 ft | 272 kts | 247° |
| 2026-04-24 04:21 | -7.98057 | 109.85311 | 8585 ft | 276 kts | 244° |
| 2026-04-24 04:21 | -7.98985 | 109.83608 | 9357 ft | 281 kts | 235° |
| 2026-04-24 04:21 | -8.00442 | 109.82288 | 10100 ft | 285 kts | 207° |
| 2026-04-24 04:21 | -8.02318 | 109.81749 | 10769 ft | 289 kts | 181° |
| 2026-04-24 04:22 | -8.04353 | 109.82057 | 11129 ft | 304 kts | 155° |
| 2026-04-24 04:22 | -8.06103 | 109.83251 | 11735 ft | 307 kts | 130° |
| 2026-04-24 04:22 | -8.07204 | 109.85080 | 12454 ft | 306 kts | 106° |
| 2026-04-24 04:22 | -8.07435 | 109.87203 | 13178 ft | 307 kts | 81° |
| 2026-04-24 04:23 | -8.06791 | 109.89252 | 13856 ft | 308 kts | 61° |
| 2026-04-24 04:23 | -8.05682 | 109.91118 | 14483 ft | 312 kts | 57° |
| 2026-04-24 04:23 | -8.04483 | 109.92956 | 15110 ft | 316 kts | 56° |
| 2026-04-24 04:23 | -8.03247 | 109.94812 | 15739 ft | 321 kts | 55° |
| 2026-04-24 04:24 | -8.01967 | 109.96738 | 15911 ft | 342 kts | 56° |
| 2026-04-24 04:24 | -8.00615 | 109.98786 | 16129 ft | 358 kts | 56° |
| 2026-04-24 04:24 | -7.99245 | 110.00876 | 16590 ft | 364 kts | 56° |
| 2026-04-24 04:24 | -7.97844 | 110.03028 | 17169 ft | 367 kts | 56° |
| 2026-04-24 04:25 | -7.96439 | 110.05193 | 17780 ft | 370 kts | 56° |
| 2026-04-24 04:25 | -7.95028 | 110.07371 | 18324 ft | 373 kts | 56° |
| 2026-04-24 04:25 | -7.93601 | 110.09580 | 18798 ft | 377 kts | 56° |
| 2026-04-24 04:25 | -7.92162 | 110.11806 | 19250 ft | 381 kts | 56° |
| 2026-04-24 04:26 | -7.90709 | 110.14054 | 19746 ft | 383 kts | 56° |
| 2026-04-24 04:26 | -7.89249 | 110.16313 | 20271 ft | 385 kts | 56° |
| 2026-04-24 04:26 | -7.87781 | 110.18584 | 20699 ft | 389 kts | 56° |
| 2026-04-24 04:26 | -7.86289 | 110.20892 | 21097 ft | 395 kts | 57° |
| 2026-04-24 04:27 | -7.84781 | 110.23225 | 21538 ft | 398 kts | 57° |
| 2026-04-24 04:27 | -7.83264 | 110.25572 | 22007 ft | 401 kts | 57° |
| 2026-04-24 04:27 | -7.81738 | 110.27931 | 22505 ft | 402 kts | 57° |
| 2026-04-24 04:27 | -7.80207 | 110.30298 | 22932 ft | 406 kts | 57° |
| 2026-04-24 04:28 | -7.78656 | 110.32695 | 23320 ft | 410 kts | 57° |
| 2026-04-24 04:28 | -7.77089 | 110.35116 | 23683 ft | 413 kts | 57° |
| 2026-04-24 04:28 | -7.75535 | 110.37518 | 24037 ft | 416 kts | 57° |
| 2026-04-24 04:28 | -7.73951 | 110.39965 | 24416 ft | 417 kts | 57° |
| 2026-04-24 04:29 | -7.72358 | 110.42426 | 24713 ft | 421 kts | 57° |
| 2026-04-24 04:29 | -7.70746 | 110.44915 | 24866 ft | 427 kts | 57° |
| 2026-04-24 04:29 | -7.69108 | 110.47444 | 24861 ft | 434 kts | 57° |
| 2026-04-24 04:29 | -7.67456 | 110.49996 | 24868 ft | 434 kts | 57° |
| 2026-04-24 04:30 | -7.65811 | 110.52535 | 24861 ft | 431 kts | 57° |
| 2026-04-24 04:30 | -7.64170 | 110.55067 | 24867 ft | 430 kts | 57° |
| 2026-04-24 04:30 | -7.62541 | 110.57582 | 24871 ft | 429 kts | 57° |
| 2026-04-24 04:30 | -7.60910 | 110.60099 | 24874 ft | 428 kts | 57° |
| 2026-04-24 04:31 | -7.59279 | 110.62617 | 24871 ft | 429 kts | 57° |
| 2026-04-24 04:31 | -7.57647 | 110.65136 | 24871 ft | 430 kts | 57° |
| 2026-04-24 04:31 | -7.56010 | 110.67659 | 24869 ft | 430 kts | 57° |
| 2026-04-24 04:31 | -7.54368 | 110.70189 | 24866 ft | 431 kts | 57° |
| 2026-04-24 04:32 | -7.52446 | 110.72494 | 24844 ft | 432 kts | 39° |
| 2026-04-24 04:32 | -7.49913 | 110.74034 | 24872 ft | 432 kts | 22° |
| 2026-04-24 04:32 | -7.47007 | 110.74815 | 24856 ft | 433 kts | 5° |
| 2026-04-24 04:32 | -7.43993 | 110.74927 | 24871 ft | 434 kts | 1° |
| 2026-04-24 04:33 | -7.40979 | 110.74935 | 24858 ft | 435 kts | 0° |
| 2026-04-24 04:33 | -7.37945 | 110.74936 | 24852 ft | 435 kts | 0° |
| 2026-04-24 04:33 | -7.34923 | 110.74994 | 24847 ft | 435 kts | 7° |
| 2026-04-24 04:33 | -7.32043 | 110.75851 | 24856 ft | 432 kts | 29° |
| 2026-04-24 04:34 | -7.29701 | 110.77720 | 24850 ft | 431 kts | 51° |
| 2026-04-24 04:34 | -7.28090 | 110.80248 | 24863 ft | 429 kts | 65° |
| 2026-04-24 04:34 | -7.26839 | 110.82983 | 24867 ft | 429 kts | 66° |
| 2026-04-24 04:34 | -7.25603 | 110.85725 | 24856 ft | 430 kts | 66° |
| 2026-04-24 04:35 | -7.24376 | 110.88430 | 24849 ft | 430 kts | 66° |
| 2026-04-24 04:35 | -7.23105 | 110.91195 | 24843 ft | 430 kts | 65° |
| 2026-04-24 04:35 | -7.21853 | 110.93892 | 24843 ft | 430 kts | 65° |
| 2026-04-24 04:35 | -7.20576 | 110.96624 | 24845 ft | 430 kts | 65° |
| 2026-04-24 04:36 | -7.19299 | 110.99344 | 24845 ft | 430 kts | 65° |
| 2026-04-24 04:36 | -7.18022 | 111.02058 | 24848 ft | 429 kts | 65° |
| 2026-04-24 04:36 | -7.16743 | 111.04775 | 24847 ft | 429 kts | 65° |
| 2026-04-24 04:36 | -7.15461 | 111.07497 | 24848 ft | 429 kts | 65° |
| 2026-04-24 04:37 | -7.14191 | 111.10194 | 24813 ft | 423 kts | 65° |
| 2026-04-24 04:37 | -7.12942 | 111.12849 | 24460 ft | 417 kts | 65° |
| 2026-04-24 04:37 | -7.11702 | 111.15485 | 24023 ft | 414 kts | 65° |
| 2026-04-24 04:37 | -7.10470 | 111.18102 | 23597 ft | 411 kts | 65° |
| 2026-04-24 04:38 | -7.09254 | 111.20686 | 23111 ft | 408 kts | 65° |
| 2026-04-24 04:38 | -7.08041 | 111.23263 | 22613 ft | 405 kts | 65° |
| 2026-04-24 04:38 | -7.06838 | 111.25819 | 22114 ft | 402 kts | 65° |
| 2026-04-24 04:38 | -7.05645 | 111.28353 | 21623 ft | 399 kts | 64° |
| 2026-04-24 04:39 | -7.04474 | 111.30838 | 21136 ft | 396 kts | 64° |
| 2026-04-24 04:39 | -7.03298 | 111.33335 | 20668 ft | 394 kts | 64° |
| 2026-04-24 04:39 | -7.02125 | 111.35825 | 20206 ft | 391 kts | 64° |
| 2026-04-24 04:39 | -7.00968 | 111.38281 | 19790 ft | 387 kts | 64° |
| 2026-04-24 04:40 | -6.99975 | 111.40785 | 19354 ft | 384 kts | 77° |
| 2026-04-24 04:40 | -6.99784 | 111.43461 | 18918 ft | 383 kts | 95° |
| 2026-04-24 04:40 | -7.00326 | 111.46071 | 18485 ft | 381 kts | 104° |
| 2026-04-24 04:40 | -7.01053 | 111.48628 | 18047 ft | 379 kts | 105° |
| 2026-04-24 04:41 | -7.01805 | 111.51160 | 17530 ft | 377 kts | 105° |
| 2026-04-24 04:41 | -7.02554 | 111.53681 | 17033 ft | 375 kts | 105° |
| 2026-04-24 04:41 | -7.03291 | 111.56193 | 16541 ft | 373 kts | 105° |
| 2026-04-24 04:41 | -7.04007 | 111.58665 | 16066 ft | 371 kts | 104° |
| 2026-04-24 04:42 | -7.04721 | 111.61157 | 15596 ft | 369 kts | 104° |
| 2026-04-24 04:42 | -7.05427 | 111.63636 | 15144 ft | 367 kts | 104° |
| 2026-04-24 04:42 | -7.06120 | 111.66075 | 14929 ft | 357 kts | 104° |
| 2026-04-24 04:42 | -7.06794 | 111.68451 | 14690 ft | 349 kts | 104° |
| 2026-04-24 04:43 | -7.07452 | 111.70773 | 14462 ft | 338 kts | 104° |
| 2026-04-24 04:43 | -7.08082 | 111.72996 | 14222 ft | 324 kts | 103° |
| 2026-04-24 04:43 | -7.08688 | 111.75138 | 14012 ft | 311 kts | 104° |
| 2026-04-24 04:43 | -7.09269 | 111.77196 | 13783 ft | 300 kts | 104° |
| 2026-04-24 04:44 | -7.09830 | 111.79176 | 13571 ft | 296 kts | 103° |
| 2026-04-24 04:44 | -7.10388 | 111.81154 | 13324 ft | 292 kts | 104° |
| 2026-04-24 04:44 | -7.10938 | 111.83107 | 13095 ft | 288 kts | 105° |
| 2026-04-24 04:44 | -7.11484 | 111.85039 | 12841 ft | 285 kts | 103° |
| 2026-04-24 04:45 | -7.12024 | 111.86949 | 12616 ft | 283 kts | 104° |
| 2026-04-24 04:45 | -7.12560 | 111.88846 | 12369 ft | 278 kts | 103° |
| 2026-04-24 04:45 | -7.13083 | 111.90701 | 12070 ft | 274 kts | 104° |
| 2026-04-24 04:45 | -7.13604 | 111.92547 | 11786 ft | 275 kts | 104° |
| 2026-04-24 04:46 | -7.14125 | 111.94397 | 11489 ft | 275 kts | 103° |
| 2026-04-24 04:46 | -7.14648 | 111.96250 | 11221 ft | 275 kts | 104° |
| 2026-04-24 04:46 | -7.15172 | 111.98101 | 10947 ft | 275 kts | 103° |
| 2026-04-24 04:46 | -7.15695 | 111.99940 | 10651 ft | 271 kts | 105° |
| 2026-04-24 04:47 | -7.16358 | 112.01703 | 10389 ft | 269 kts | 110° |
| 2026-04-24 04:47 | -7.17104 | 112.03424 | 10160 ft | 267 kts | 112° |
| 2026-04-24 04:47 | -7.17859 | 112.05130 | 9926 ft | 267 kts | 111° |
| 2026-04-24 04:47 | -7.18615 | 112.06846 | 9633 ft | 268 kts | 111° |
| 2026-04-24 04:48 | -7.19355 | 112.08541 | 9351 ft | 268 kts | 111° |
| 2026-04-24 04:48 | -7.20101 | 112.10261 | 9093 ft | 266 kts | 110° |
| 2026-04-24 04:48 | -7.20833 | 112.11961 | 8831 ft | 263 kts | 111° |
| 2026-04-24 04:48 | -7.21558 | 112.13645 | 8599 ft | 261 kts | 111° |
| 2026-04-24 04:49 | -7.22277 | 112.15320 | 8357 ft | 259 kts | 111° |
| 2026-04-24 04:49 | -7.22985 | 112.16968 | 8106 ft | 253 kts | 111° |
| 2026-04-24 04:49 | -7.23675 | 112.18577 | 7861 ft | 249 kts | 111° |
| 2026-04-24 04:49 | -7.24355 | 112.20170 | 7617 ft | 247 kts | 111° |
| 2026-04-24 04:50 | -7.25023 | 112.21737 | 7379 ft | 245 kts | 111° |
| 2026-04-24 04:50 | -7.25698 | 112.23309 | 7155 ft | 244 kts | 111° |
| 2026-04-24 04:50 | -7.26370 | 112.24882 | 6926 ft | 244 kts | 111° |
| 2026-04-24 04:50 | -7.27039 | 112.26451 | 6681 ft | 244 kts | 110° |
| 2026-04-24 04:51 | -7.27709 | 112.28019 | 6453 ft | 242 kts | 110° |
| 2026-04-24 04:51 | -7.28374 | 112.29578 | 6231 ft | 242 kts | 110° |
| 2026-04-24 04:51 | -7.29039 | 112.31134 | 5989 ft | 241 kts | 111° |
| 2026-04-24 04:51 | -7.29688 | 112.32684 | 5738 ft | 240 kts | 107° |
| 2026-04-24 04:52 | -7.30104 | 112.34297 | 5497 ft | 236 kts | 99° |
| 2026-04-24 04:52 | -7.30413 | 112.35921 | 5258 ft | 236 kts | 98° |
| 2026-04-24 04:52 | -7.30712 | 112.37525 | 5022 ft | 234 kts | 98° |
| 2026-04-24 04:52 | -7.31021 | 112.39154 | 4776 ft | 234 kts | 99° |
| 2026-04-24 04:53 | -7.31329 | 112.40747 | 4541 ft | 234 kts | 99° |
| 2026-04-24 04:53 | -7.31643 | 112.42350 | 4288 ft | 233 kts | 99° |
| 2026-04-24 04:53 | -7.31959 | 112.43945 | 4050 ft | 231 kts | 99° |
| 2026-04-24 04:53 | -7.32274 | 112.45520 | 3875 ft | 227 kts | 99° |
| 2026-04-24 04:54 | -7.32582 | 112.47053 | 3747 ft | 220 kts | 99° |
| 2026-04-24 04:54 | -7.32879 | 112.48526 | 3655 ft | 209 kts | 100° |
| 2026-04-24 04:54 | -7.33226 | 112.49912 | 3530 ft | 198 kts | 102° |
| 2026-04-24 04:54 | -7.33428 | 112.50792 | 3485 ft | 190 kts | 100° |
| 2026-04-24 04:55 | -7.33755 | 112.52513 | 3498 ft | 185 kts | 98° |
| 2026-04-24 04:55 | -7.33900 | 112.53367 | 3504 ft | 187 kts | 98° |
| 2026-04-24 04:55 | -7.34186 | 112.55104 | 3498 ft | 191 kts | 97° |
| 2026-04-24 04:55 | -7.34396 | 112.56400 | 3491 ft | 183 kts | 98° |
| 2026-04-24 04:56 | -7.34534 | 112.57250 | 3425 ft | 179 kts | 97° |
| 2026-04-24 04:56 | -7.34726 | 112.58441 | 3300 ft | 172 kts | 97° |
| 2026-04-24 04:56 | -7.34912 | 112.59611 | 3263 ft | 166 kts | 97° |
| 2026-04-24 04:56 | -7.35152 | 112.61185 | 3036 ft | 172 kts | 96° |
| 2026-04-24 04:57 | -7.35274 | 112.61979 | 2878 ft | 174 kts | 98° |
| 2026-04-24 04:57 | -7.35478 | 112.63161 | 2675 ft | 169 kts | 97° |
| 2026-04-24 04:57 | -7.35668 | 112.64318 | 2464 ft | 164 kts | 96° |
| 2026-04-24 04:57 | -7.35847 | 112.65462 | 2261 ft | 163 kts | 97° |
| 2026-04-24 04:58 | -7.36035 | 112.66591 | 2031 ft | 160 kts | 97° |
| 2026-04-24 04:58 | -7.36217 | 112.67717 | 1840 ft | 163 kts | 98° |
| 2026-04-24 04:58 | -7.36395 | 112.68826 | 1641 ft | 154 kts | 98° |
| 2026-04-24 04:58 | -7.36567 | 112.69866 | 1434 ft | 148 kts | 98° |
| 2026-04-24 04:59 | -7.36727 | 112.70891 | 1226 ft | 147 kts | 99° |
| 2026-04-24 04:59 | -7.36893 | 112.71912 | 1052 ft | 145 kts | 98° |
| 2026-04-24 04:59 | -7.37051 | 112.72904 | 869 ft | 142 kts | 100° |
| 2026-04-24 04:59 | -7.37214 | 112.73902 | 713 ft | 148 kts | 99° |
| 2026-04-24 05:00 | -7.37378 | 112.74935 | 509 ft | 150 kts | 97° |
| 2026-04-24 05:00 | -7.37549 | 112.75957 | 330 ft | 151 kts | 98° |
| 2026-04-24 05:00 | -7.37704 | 112.76977 | 133 ft | 141 kts | 102° |
| 2026-04-24 05:00 | -7.37856 | 112.77912 | 16 ft | 128 kts | 101° |
| 2026-04-24 05:01 | -7.37984 | 112.78693 | 9 ft | 92 kts | 99° |
| 2026-04-24 05:01 | -7.38063 | 112.79180 | 10 ft | 47 kts | 99° |
| 2026-04-24 05:01 | -7.38104 | 112.79470 | 8 ft | 40 kts | 94° |
| 2026-04-24 05:01 | -7.38077 | 112.79666 | 9 ft | 18 kts | 70° |
| 2026-04-24 05:02 | -7.38055 | 112.79725 | 8 ft | 6 kts | 68° |
| 2026-04-24 05:02 | -7.38033 | 112.79756 | 8 ft | 5 kts | 43° |
| 2026-04-24 05:02 | -7.37998 | 112.79768 | 8 ft | 6 kts | 350° |
| 2026-04-24 05:02 | -7.37974 | 112.79726 | 8 ft | 10 kts | 277° |
| 2026-04-24 05:03 | -7.37960 | 112.79633 | 8 ft | 16 kts | 280° |
| 2026-04-24 05:03 | -7.37943 | 112.79522 | 8 ft | 16 kts | 279° |
| 2026-04-24 05:03 | -7.37902 | 112.79428 | 8 ft | 15 kts | 334° |
| 2026-04-24 05:03 | -7.37801 | 112.79433 | 8 ft | 14 kts | 8° |
| 2026-04-24 05:04 | -7.37704 | 112.79446 | 8 ft | 14 kts | 355° |
| 2026-04-24 05:04 | -7.37664 | 112.79368 | 8 ft | 13 kts | 279° |
| 2026-04-24 05:04 | -7.37651 | 112.79287 | 8 ft | 8 kts | 280° |
| 2026-04-24 05:04 | -7.37645 | 112.79255 | 8 ft | 4 kts | 280° |
| 2026-04-24 05:05 | -7.37623 | 112.79227 | 9 ft | 7 kts | 12° |
| 2026-04-24 05:05 | -7.37576 | 112.79236 | 9 ft | 6 kts | 8° |
| 2026-04-24 05:05 | -7.37563 | 112.79238 | 8 ft | 1 kts | 9° |
| 2026-04-24 05:05 | -7.37556 | 112.79239 | 8 ft | 1 kts | 9° |
| 2026-04-24 05:06 | -7.37554 | 112.79239 | 8 ft | 0 kts | 9° |